ENOV/HOV METAR and TAF weather

Enter ICAO airport designator
Station Type Date Time Source
ENOV METAR 2021/03/03 19:20 UTC NOAA

ENOV 031920Z VRB03KT 9999 FEW038 SCT048 01/M03 Q1025 RMK WIND 2175FT 35019KT


Station Type Date Time Source
ENOV Decoded METAR 2021/03/03 19:20 UTC NOAA

Orsta-Volda / Hovden, Norway (ENOV) 62-11N 006-04E 74M
Mar 03, 2021 - 02:20 PM EST / 2021.03.03 1920 UTC
Wind: Variable at 3 MPH (3 KT):0
Visibility: greater than 7 mile(s):0
Sky conditions: partly cloudy
Temperature: 33 F (1 C)
Dew Point: 26 F (-3 C)
Relative Humidity: 74%
Pressure (altimeter): 30.27 in. Hg (1025 hPa)
ob: ENOV 031920Z VRB03KT 9999 FEW038 SCT048 01/M03 Q1025 RMK WIND 2175FT 35019KT
cycle: 19

Station Type Date Time Source
ENOV TAF UTC NOAA

Error!

Example: see airport list